Time;durP1;ratioP1;P1;durP2;ratioP2;P2;SDS_P1;SDS_P2;PMS_P1;PMS_P2;Temp;Humidity;BMP_temperature;BMP_pressure;BME280_temperature;BME280_humidity;BME280_pressure;Samples;Min_cycle;Max_cycle;Signal;HPM_P1;HPM_P2
2023/10/25 00:00:36;;;;;;;5.10;3.45;;;8.30;99.90;;;;;;6270834;28;20040;-76
2023/10/25 00:03:38;;;;;;;10.48;4.00;;;8.30;99.90;;;;;;6270967;28;20047;-74
2023/10/25 00:06:39;;;;;;;6.93;4.50;;;8.30;99.90;;;;;;6270556;28;20499;-75
2023/10/25 00:09:41;;;;;;;4.47;3.58;;;8.30;99.90;;;;;;6271030;28;20409;-75
2023/10/25 00:12:43;;;;;;;5.13;4.22;;;8.30;99.90;;;;;;6270298;28;20407;-76
2023/10/25 00:15:46;;;;;;;6.32;4.20;;;8.30;99.90;;;;;;6270445;28;20086;-74
2023/10/25 00:18:48;;;;;;;7.75;5.43;;;8.30;99.90;;;;;;6270092;28;20426;-74
2023/10/25 00:21:49;;;;;;;4.93;3.67;;;8.30;99.90;;;;;;6270980;28;20067;-75
2023/10/25 00:24:51;;;;;;;6.47;3.85;;;8.30;99.90;;;;;;6298613;22;20049;-80
2023/10/25 00:27:53;;;;;;;11.73;4.18;;;8.30;99.90;;;;;;6317931;28;20116;-80
2023/10/25 00:30:56;;;;;;;5.35;4.40;;;8.40;99.90;;;;;;6318350;28;20069;-79
2023/10/25 00:33:58;;;;;;;8.50;4.32;;;8.40;99.90;;;;;;6300161;28;20492;-79
2023/10/25 00:36:59;;;;;;;5.20;4.35;;;8.40;99.90;;;;;;6333678;28;20045;-79
2023/10/25 00:40:01;;;;;;;8.00;4.43;;;8.40;99.90;;;;;;6321636;28;20312;-80
2023/10/25 00:43:16;;;;;;;4.53;3.90;;;8.40;99.90;;;;;;6323397;28;20413;-79
2023/10/25 00:46:23;;;;;;;8.07;5.07;;;8.50;99.90;;;;;;6317402;28;20107;-79
2023/10/25 00:49:25;;;;;;;10.20;5.45;;;8.50;99.90;;;;;;6293455;28;20041;-80
2023/10/25 00:52:27;;;;;;;5.95;4.47;;;8.50;99.90;;;;;;6323588;28;20044;-79
2023/10/25 00:55:29;;;;;;;8.27;4.45;;;8.50;99.90;;;;;;6319028;28;20040;-81
2023/10/25 00:58:31;;;;;;;4.85;3.65;;;8.60;99.90;;;;;;6326585;28;20047;-79
2023/10/25 01:01:34;;;;;;;6.50;4.70;;;8.60;99.90;;;;;;6304849;28;20048;-78
2023/10/25 01:04:36;;;;;;;11.88;4.43;;;8.60;99.90;;;;;;6321123;28;20032;-79
2023/10/25 01:07:38;;;;;;;8.38;4.70;;;8.60;99.90;;;;;;6320065;28;20548;-80
2023/10/25 01:10:40;;;;;;;7.25;3.88;;;8.50;99.90;;;;;;6324927;28;20457;-79
2023/10/25 01:13:41;;;;;;;4.82;3.97;;;8.40;99.90;;;;;;6323693;28;20062;-80
2023/10/25 01:16:44;;;;;;;5.18;3.80;;;8.30;99.90;;;;;;6299954;28;20524;-79
2023/10/25 01:19:46;;;;;;;7.38;4.97;;;8.30;99.90;;;;;;6306554;28;20495;-79
2023/10/25 01:22:49;;;;;;;4.85;3.60;;;8.20;99.90;;;;;;6323787;28;20161;-79
2023/10/25 01:25:51;;;;;;;4.57;3.38;;;8.20;99.90;;;;;;6321024;28;20501;-80
2023/10/25 01:28:53;;;;;;;8.50;4.07;;;8.20;99.90;;;;;;6321259;28;20136;-79
2023/10/25 01:31:54;;;;;;;4.63;3.83;;;8.10;99.90;;;;;;6312703;28;20047;-79
2023/10/25 01:34:56;;;;;;;5.82;4.10;;;8.00;99.90;;;;;;6327384;28;20052;-78
2023/10/25 01:37:59;;;;;;;4.80;3.95;;;8.00;99.90;;;;;;6320832;28;20060;-80
2023/10/25 01:41:01;;;;;;;11.02;4.30;;;7.90;99.90;;;;;;6322562;28;20040;-79
2023/10/25 01:44:03;;;;;;;6.20;4.10;;;7.90;99.90;;;;;;6292857;28;20044;-79
2023/10/25 01:47:05;;;;;;;6.30;3.67;;;7.90;99.90;;;;;;6325552;28;20036;-79
2023/10/25 01:50:08;;;;;;;10.40;4.18;;;7.90;99.90;;;;;;6297824;28;20048;-79
2023/10/25 01:53:11;;;;;;;10.32;4.10;;;7.90;99.90;;;;;;6322460;28;20515;-79
2023/10/25 01:56:13;;;;;;;7.00;4.15;;;7.90;99.90;;;;;;6309583;28;20066;-79
2023/10/25 01:59:14;;;;;;;8.65;4.38;;;7.90;99.90;;;;;;6327090;28;20054;-79
2023/10/25 02:02:16;;;;;;;7.20;4.32;;;8.00;99.90;;;;;;6323407;28;20044;-79
2023/10/25 02:05:18;;;;;;;18.05;4.18;;;8.00;99.90;;;;;;6315504;28;20047;-79
2023/10/25 02:08:21;;;;;;;6.95;4.10;;;8.10;99.90;;;;;;6327312;28;20044;-80
2023/10/25 02:11:23;;;;;;;9.70;3.95;;;8.10;99.90;;;;;;6324150;28;20416;-80
2023/10/25 02:14:25;;;;;;;6.57;3.97;;;8.10;99.90;;;;;;6326255;28;20523;-79
2023/10/25 02:17:26;;;;;;;8.60;5.32;;;8.10;99.90;;;;;;6328969;28;20036;-79
2023/10/25 02:20:29;;;;;;;6.88;3.45;;;8.10;99.90;;;;;;6322018;28;20040;-79
2023/10/25 02:23:32;;;;;;;7.40;4.50;;;8.00;99.90;;;;;;6309569;28;20554;-79
2023/10/25 02:26:33;;;;;;;6.20;4.60;;;8.00;99.90;;;;;;6321242;28;20117;-79
2023/10/25 02:29:35;;;;;;;7.22;4.43;;;8.10;99.90;;;;;;6323504;28;20048;-79
2023/10/25 02:32:37;;;;;;;6.40;4.75;;;8.10;99.90;;;;;;6321778;28;20044;-79
2023/10/25 02:35:39;;;;;;;10.48;4.82;;;8.10;99.90;;;;;;6311369;28;20055;-79
2023/10/25 02:38:42;;;;;;;8.18;5.13;;;8.10;99.90;;;;;;6328538;28;20389;-79
2023/10/25 02:41:44;;;;;;;7.88;4.47;;;8.00;99.90;;;;;;6306318;28;20051;-79
2023/10/25 02:44:45;;;;;;;9.10;4.63;;;8.00;99.90;;;;;;6322614;28;20050;-79
2023/10/25 02:47:47;;;;;;;8.50;5.10;;;8.00;99.90;;;;;;6314109;28;20041;-79
2023/10/25 02:50:49;;;;;;;8.48;4.07;;;8.00;99.90;;;;;;6311940;28;20432;-79
2023/10/25 02:53:54;;;;;;;11.10;4.78;;;8.00;99.90;;;;;;6309424;28;20052;-79
2023/10/25 02:56:56;;;;;;;7.40;4.40;;;8.10;99.90;;;;;;6330836;28;20040;-79
2023/10/25 02:59:57;;;;;;;6.30;4.47;;;8.10;99.90;;;;;;6322039;28;20049;-79
2023/10/25 03:02:59;;;;;;;8.05;4.68;;;8.20;99.90;;;;;;6330551;28;20048;-79
2023/10/25 03:06:01;;;;;;;14.93;4.93;;;8.20;99.90;;;;;;6313359;28;20100;-79
2023/10/25 03:09:05;;;;;;;8.25;6.47;;;8.20;99.90;;;;;;6329504;28;20056;-79
2023/10/25 03:12:06;;;;;;;9.73;3.97;;;8.20;99.90;;;;;;6318253;28;20037;-79
2023/10/25 03:15:09;;;;;;;6.10;3.42;;;8.20;99.90;;;;;;6317526;28;20046;-79
2023/10/25 03:18:11;;;;;;;6.00;4.10;;;8.20;99.90;;;;;;6330667;28;20044;-79
2023/10/25 03:21:13;;;;;;;8.45;4.05;;;8.20;99.90;;;;;;6317842;28;20036;-79
2023/10/25 03:24:16;;;;;;;6.15;4.78;;;8.20;99.90;;;;;;6325791;28;20119;-79
2023/10/25 03:27:17;;;;;;;7.15;5.28;;;8.20;99.90;;;;;;6330106;28;20044;-79
2023/10/25 03:30:19;;;;;;;6.82;4.95;;;8.20;99.90;;;;;;6321165;28;20043;-79
2023/10/25 03:33:21;;;;;;;6.22;4.82;;;8.20;99.90;;;;;;6324134;28;20293;-79
2023/10/25 03:36:23;;;;;;;11.07;5.20;;;8.20;99.90;;;;;;6327187;28;20042;-80
2023/10/25 03:39:26;;;;;;;6.72;5.47;;;8.20;99.90;;;;;;6330137;28;20048;-79
2023/10/25 03:42:28;;;;;;;6.78;4.80;;;8.20;99.90;;;;;;6309168;28;20059;-79
2023/10/25 03:45:29;;;;;;;12.30;6.22;;;8.20;99.90;;;;;;6310694;28;20046;-79
2023/10/25 03:48:32;;;;;;;10.32;4.40;;;8.20;99.90;;;;;;6290675;28;20048;-79
2023/10/25 03:51:34;;;;;;;8.57;4.43;;;8.20;99.90;;;;;;6320470;28;20044;-79
2023/10/25 03:54:39;;;;;;;7.25;5.07;;;8.20;99.90;;;;;;6330856;28;20050;-79
2023/10/25 03:57:40;;;;;;;8.35;4.88;;;8.20;99.90;;;;;;6322815;28;20037;-79
2023/10/25 04:00:42;;;;;;;12.85;5.32;;;8.20;99.90;;;;;;6320705;28;20666;-80
2023/10/25 04:03:44;;;;;;;8.18;4.88;;;8.20;99.90;;;;;;6304786;28;20036;-79
2023/10/25 04:06:45;;;;;;;7.75;5.25;;;8.20;99.90;;;;;;6312311;28;20040;-79
2023/10/25 04:09:48;;;;;;;9.10;5.80;;;8.20;99.90;;;;;;6313773;28;20047;-79
2023/10/25 04:12:51;;;;;;;25.13;6.15;;;8.10;99.90;;;;;;6329643;28;20048;-78
2023/10/25 04:15:56;;;;;;;7.57;5.15;;;8.00;99.90;;;;;;6329607;28;20072;-79
2023/10/25 04:18:58;;;;;;;16.58;6.00;;;8.00;99.90;;;;;;6320503;28;20040;-79
2023/10/25 04:22:01;;;;;;;11.52;5.97;;;7.90;99.90;;;;;;6327530;28;20052;-79
2023/10/25 04:25:05;;;;;;;12.13;6.10;;;7.90;99.90;;;;;;6311533;28;20063;-79
2023/10/25 04:28:06;;;;;;;16.00;6.13;;;7.90;99.90;;;;;;6319530;28;20071;-80
2023/10/25 04:31:08;;;;;;;15.27;6.57;;;7.80;99.90;;;;;;6320558;28;20052;-79
2023/10/25 04:34:10;;;;;;;14.55;6.65;;;7.70;99.90;;;;;;6323932;28;20419;-79
2023/10/25 04:37:13;;;;;;;18.08;6.10;;;7.60;99.90;;;;;;6329150;28;20085;-79
2023/10/25 04:40:16;;;;;;;10.57;5.40;;;7.60;99.90;;;;;;6328522;28;20072;-79
2023/10/25 04:43:18;;;;;;;9.63;7.00;;;7.60;99.90;;;;;;6301814;28;20043;-79
2023/10/25 04:46:20;;;;;;;8.00;5.55;;;7.60;99.90;;;;;;6319603;28;20044;-79
2023/10/25 04:49:21;;;;;;;10.93;6.90;;;7.60;99.90;;;;;;6328249;28;20060;-79
2023/10/25 04:52:23;;;;;;;12.63;6.47;;;7.60;99.90;;;;;;6328711;28;20044;-79
2023/10/25 04:55:29;;;;;;;14.18;5.63;;;7.50;99.90;;;;;;6298450;28;20036;-79
2023/10/25 04:58:31;;;;;;;12.25;5.22;;;7.50;99.90;;;;;;6321081;28;20048;-79
2023/10/25 05:01:32;;;;;;;7.70;4.80;;;7.50;99.90;;;;;;6317183;28;20054;-78
2023/10/25 05:04:34;;;;;;;11.48;4.78;;;7.50;99.90;;;;;;6329097;28;20040;-79
2023/10/25 05:07:37;;;;;;;12.95;5.10;;;7.40;99.90;;;;;;6321049;28;20666;-79
2023/10/25 05:10:41;;;;;;;11.57;4.78;;;7.40;99.90;;;;;;6323025;28;20059;-79
2023/10/25 05:13:43;;;;;;;14.52;5.85;;;7.40;99.90;;;;;;6324364;28;20516;-79
2023/10/25 05:16:46;;;;;;;17.05;6.05;;;7.40;99.90;;;;;;6330816;28;20046;-79
2023/10/25 05:19:48;;;;;;;24.67;8.10;;;7.50;99.90;;;;;;6328929;28;20153;-79
2023/10/25 05:22:52;;;;;;;33.28;7.68;;;7.50;99.90;;;;;;6319188;28;20056;-79
2023/10/25 05:25:56;;;;;;;18.52;7.35;;;7.60;99.90;;;;;;6312242;28;20052;-79
2023/10/25 05:28:58;;;;;;;12.40;7.13;;;7.60;99.90;;;;;;6327084;28;20040;-79
2023/10/25 05:32:04;;;;;;;16.17;7.80;;;7.60;99.90;;;;;;6329619;28;20044;-80
2023/10/25 05:35:07;;;;;;;13.93;7.55;;;7.70;99.90;;;;;;6318021;28;20123;-79
2023/10/25 05:38:09;;;;;;;8.82;5.97;;;7.70;99.90;;;;;;6318192;28;20048;-80
2023/10/25 05:41:19;;;;;;;10.52;7.45;;;7.80;99.90;;;;;;6321393;28;20047;-80
2023/10/25 05:44:21;;;;;;;14.55;6.07;;;7.80;99.90;;;;;;6323617;28;20095;-79
2023/10/25 05:47:23;;;;;;;9.50;5.55;;;7.80;99.90;;;;;;6324042;28;20516;-80
2023/10/25 05:50:26;;;;;;;10.23;5.85;;;7.70;99.90;;;;;;6324769;28;20206;-79
2023/10/25 05:53:28;;;;;;;7.22;5.80;;;7.70;99.90;;;;;;6327439;28;20045;-80
2023/10/25 05:56:32;;;;;;;8.63;5.50;;;7.70;99.90;;;;;;6311413;28;20125;-80
2023/10/25 05:59:34;;;;;;;8.52;4.43;;;7.70;99.90;;;;;;6312631;28;20052;-79
2023/10/25 06:02:37;;;;;;;12.35;5.13;;;7.70;99.90;;;;;;6319450;28;20473;-80
2023/10/25 06:05:40;;;;;;;10.68;6.78;;;7.70;99.90;;;;;;6320804;28;20485;-79
2023/10/25 06:08:43;;;;;;;10.30;6.18;;;7.70;99.90;;;;;;6329801;28;20473;-79
2023/10/25 06:11:46;;;;;;;6.28;4.72;;;7.70;99.90;;;;;;6333593;28;20040;-80
2023/10/25 06:14:48;;;;;;;8.10;5.05;;;7.80;99.90;;;;;;6334134;28;20127;-80
2023/10/25 06:17:51;;;;;;;6.70;5.63;;;7.80;99.90;;;;;;6335433;28;20047;-80
2023/10/25 06:20:53;;;;;;;7.30;4.75;;;7.80;99.90;;;;;;6291657;28;20502;-78
2023/10/25 06:23:55;;;;;;;6.00;3.95;;;7.80;99.90;;;;;;6283905;28;20490;-80
2023/10/25 06:26:58;;;;;;;10.75;4.63;;;7.80;99.90;;;;;;6280764;22;20048;-75
2023/10/25 06:30:00;;;;;;;6.88;4.72;;;7.80;99.90;;;;;;6272056;28;20049;-75
2023/10/25 06:33:01;;;;;;;8.50;5.50;;;7.90;99.90;;;;;;6265626;28;20533;-74
2023/10/25 06:36:04;;;;;;;7.45;6.15;;;7.90;99.90;;;;;;6272421;28;20135;-75
2023/10/25 06:39:07;;;;;;;7.97;5.28;;;7.90;99.90;;;;;;6270845;28;20047;-75
2023/10/25 06:42:12;;;;;;;10.32;5.82;;;7.90;99.90;;;;;;6257301;28;20048;-75
2023/10/25 06:45:14;;;;;;;7.53;5.20;;;8.00;99.90;;;;;;6258335;28;20374;-75
2023/10/25 06:48:17;;;;;;;8.85;4.95;;;8.10;99.90;;;;;;6263548;28;20041;-75
2023/10/25 06:51:20;;;;;;;11.13;5.03;;;8.20;99.90;;;;;;6271051;28;20502;-75
2023/10/25 06:54:22;;;;;;;8.68;4.97;;;8.40;99.90;;;;;;6264180;28;20053;-75
2023/10/25 06:57:26;;;;;;;7.60;5.10;;;8.40;99.90;;;;;;6259701;28;20113;-75
2023/10/25 07:00:28;;;;;;;8.77;5.00;;;8.50;99.90;;;;;;6263638;28;20041;-75
2023/10/25 07:03:33;;;;;;;7.60;5.03;;;8.60;99.90;;;;;;6260461;28;20037;-75
2023/10/25 07:06:36;;;;;;;6.05;4.28;;;8.60;99.90;;;;;;6264166;28;20051;-75
2023/10/25 07:09:38;;;;;;;5.78;4.53;;;8.60;99.90;;;;;;6278432;28;20047;-75
2023/10/25 07:12:41;;;;;;;6.45;5.30;;;8.60;99.90;;;;;;6264019;28;20659;-75
2023/10/25 07:15:43;;;;;;;7.88;4.82;;;8.80;99.90;;;;;;6263462;28;20064;-75
2023/10/25 07:18:46;;;;;;;6.95;4.93;;;8.80;99.90;;;;;;6267388;28;20074;-75
2023/10/25 07:21:48;;;;;;;8.45;5.93;;;9.00;99.90;;;;;;6262851;28;20055;-75
2023/10/25 07:24:50;;;;;;;8.25;5.93;;;9.10;99.90;;;;;;6271323;28;20048;-75
2023/10/25 07:27:53;;;;;;;10.70;5.18;;;9.30;99.90;;;;;;6262959;28;20041;-75
2023/10/25 07:30:54;;;;;;;9.10;6.38;;;9.40;99.90;;;;;;6255454;28;20046;-75
2023/10/25 07:33:56;;;;;;;9.93;6.03;;;9.60;99.90;;;;;;6262174;28;20071;-75
2023/10/25 07:36:58;;;;;;;9.10;6.57;;;9.80;99.90;;;;;;6254437;28;20037;-75
2023/10/25 07:40:00;;;;;;;7.38;6.68;;;10.00;99.90;;;;;;6266167;28;20652;-75
2023/10/25 07:43:03;;;;;;;8.55;5.68;;;10.30;99.90;;;;;;6254754;28;20414;-75
2023/10/25 07:46:05;;;;;;;7.80;5.63;;;10.50;99.90;;;;;;6271367;28;20528;-75
2023/10/25 07:49:07;;;;;;;7.47;4.80;;;10.70;99.90;;;;;;6253982;28;20057;-75
2023/10/25 07:52:09;;;;;;;8.63;5.20;;;10.80;99.90;;;;;;6262708;28;20052;-75
2023/10/25 07:55:11;;;;;;;7.78;4.85;;;10.90;99.90;;;;;;6268818;28;20041;-75
2023/10/25 07:58:14;;;;;;;10.55;5.65;;;11.00;99.90;;;;;;6264868;28;20041;-75
2023/10/25 08:01:16;;;;;;;11.98;5.85;;;11.20;99.90;;;;;;6270506;28;20052;-76
2023/10/25 08:04:27;;;;;;;6.30;4.80;;;11.30;99.90;;;;;;6231481;28;20055;-76
2023/10/25 08:07:30;;;;;;;6.55;4.53;;;11.60;99.90;;;;;;6263674;28;20102;-76
2023/10/25 08:10:32;;;;;;;6.18;4.70;;;11.80;99.90;;;;;;6266274;28;20518;-75
2023/10/25 08:13:38;;;;;;;7.70;5.00;;;12.10;99.90;;;;;;6259124;28;20494;-75
2023/10/25 08:16:42;;;;;;;5.15;3.38;;;12.30;99.90;;;;;;6278662;28;20041;-75
2023/10/25 08:19:43;;;;;;;7.65;4.05;;;12.50;99.90;;;;;;6261608;28;20171;-75
2023/10/25 08:22:45;;;;;;;5.72;3.70;;;12.60;99.90;;;;;;6257886;28;20045;-77
2023/10/25 08:25:47;;;;;;;5.43;3.20;;;12.60;99.90;;;;;;6263194;28;20132;-75
2023/10/25 08:28:51;;;;;;;6.03;2.92;;;12.60;99.90;;;;;;6261959;28;20134;-75
2023/10/25 08:31:52;;;;;;;2.88;2.60;;;12.70;99.90;;;;;;6271774;28;20049;-78
2023/10/25 08:34:54;;;;;;;4.10;3.15;;;12.80;99.90;;;;;;6264736;28;20418;-74
2023/10/25 08:37:56;;;;;;;2.85;2.55;;;12.90;99.90;;;;;;6271321;28;20075;-76
2023/10/25 08:41:02;;;;;;;4.80;2.45;;;12.90;99.90;;;;;;6271333;28;20044;-75
2023/10/25 08:44:08;;;;;;;3.17;2.70;;;13.00;99.90;;;;;;6263235;28;20533;-75
2023/10/25 08:47:11;;;;;;;3.33;2.47;;;13.20;99.90;;;;;;6269431;28;20041;-75
2023/10/25 08:50:19;;;;;;;8.48;3.00;;;13.20;99.90;;;;;;6246830;28;20509;-74
2023/10/25 08:53:25;;;;;;;5.75;3.17;;;13.30;99.90;;;;;;6254747;28;20060;-76
2023/10/25 08:56:26;;;;;;;3.13;2.83;;;13.20;99.90;;;;;;6254200;28;20045;-75
2023/10/25 08:59:30;;;;;;;3.75;3.40;;;13.20;99.90;;;;;;6266117;28;20061;-76
2023/10/25 09:02:37;;;;;;;3.85;3.45;;;13.10;99.90;;;;;;6251017;28;20056;-75
2023/10/25 09:05:41;;;;;;;8.98;3.13;;;13.10;99.90;;;;;;6247313;28;20046;-76
2023/10/25 09:08:48;;;;;;;4.68;2.58;;;13.10;99.90;;;;;;6261838;28;20422;-76
2023/10/25 09:11:49;;;;;;;3.88;2.75;;;13.10;99.90;;;;;;6265611;28;20416;-76
2023/10/25 09:14:53;;;;;;;2.15;1.95;;;13.20;99.90;;;;;;6252662;28;20048;-75
2023/10/25 09:17:56;;;;;;;2.42;1.92;;;13.20;99.90;;;;;;6255634;28;20184;-75
2023/10/25 09:20:58;;;;;;;4.50;2.88;;;13.30;99.90;;;;;;6265496;28;20041;-77
2023/10/25 09:24:02;;;;;;;5.85;2.75;;;13.40;99.90;;;;;;6275464;28;20128;-78
2023/10/25 09:27:08;;;;;;;3.33;2.42;;;13.40;99.90;;;;;;6260043;28;20699;-77
2023/10/25 09:30:16;;;;;;;4.13;2.40;;;13.50;99.90;;;;;;6253443;28;20451;-77
2023/10/25 09:33:18;;;;;;;2.55;2.30;;;13.50;99.90;;;;;;6258997;28;20052;-76
2023/10/25 09:36:21;;;;;;;3.20;2.42;;;13.60;99.90;;;;;;6245211;28;20048;-79
2023/10/25 09:39:22;;;;;;;3.75;2.75;;;13.70;99.90;;;;;;6247144;28;20049;-77
2023/10/25 09:42:25;;;;;;;2.75;2.28;;;13.80;99.90;;;;;;6267240;28;20049;-78
2023/10/25 09:45:29;;;;;;;2.58;2.17;;;13.80;99.90;;;;;;6265996;28;20070;-76
2023/10/25 09:48:36;;;;;;;4.03;2.20;;;13.70;99.90;;;;;;6255848;28;20410;-76
2023/10/25 09:52:05;;;;;;;1.98;1.70;;;13.60;99.90;;;;;;6182216;28;20050;-76
2023/10/25 09:55:18;;;;;;;2.83;2.42;;;13.40;99.90;;;;;;6196595;28;20121;-76
2023/10/25 09:58:20;;;;;;;2.08;1.40;;;13.30;99.90;;;;;;6219925;28;20046;-76
2023/10/25 10:01:23;;;;;;;5.07;2.25;;;13.30;99.90;;;;;;6221254;28;20651;-76
2023/10/25 10:04:33;;;;;;;3.85;1.38;;;13.30;99.90;;;;;;6221340;28;20049;-76
2023/10/25 10:07:41;;;;;;;3.10;1.42;;;13.30;99.90;;;;;;6222699;28;20072;-75
2023/10/25 10:10:48;;;;;;;2.03;1.67;;;13.30;99.90;;;;;;6222059;28;20054;-75
2023/10/25 10:14:29;;;;;;;1.63;1.38;;;13.40;99.90;;;;;;6217952;28;20066;-75
2023/10/25 10:17:35;;;;;;;4.53;3.17;;;13.50;99.90;;;;;;6218908;28;20041;-76
2023/10/25 10:20:36;;;;;;;5.07;2.17;;;13.50;99.90;;;;;;6206642;28;20053;-76
2023/10/25 10:23:40;;;;;;;2.28;1.73;;;13.40;99.90;;;;;;6207947;28;20049;-76
2023/10/25 10:26:48;;;;;;;31.35;10.15;;;13.30;99.90;;;;;;6220354;28;20211;-76
2023/10/25 10:29:50;;;;;;;22.60;10.45;;;13.30;99.90;;;;;;6229177;28;20068;-77
2023/10/25 10:32:57;;;;;;;46.50;24.25;;;13.40;99.90;;;;;;6225178;28;20042;-77
2023/10/25 10:36:01;;;;;;;8.45;6.57;;;13.40;99.90;;;;;;6223287;28;20054;-75
2023/10/25 10:39:13;;;;;;;6.57;4.93;;;13.40;99.90;;;;;;6215490;28;20534;-75
2023/10/25 10:42:20;;;;;;;2.45;2.25;;;13.40;99.90;;;;;;6207868;28;20684;-75
2023/10/25 10:45:23;;;;;;;6.32;3.80;;;13.50;99.90;;;;;;6214648;28;20054;-74
2023/10/25 10:48:32;;;;;;;2.85;2.38;;;13.50;99.90;;;;;;6212447;28;20108;-74
2023/10/25 10:51:34;;;;;;;3.60;2.20;;;13.50;99.90;;;;;;6215462;28;20044;-74
2023/10/25 10:54:37;;;;;;;3.17;2.58;;;13.60;99.90;;;;;;6209598;28;20046;-74
2023/10/25 10:57:39;;;;;;;5.45;1.92;;;13.70;99.90;;;;;;6210552;28;20042;-74
2023/10/25 11:00:44;;;;;;;3.40;2.20;;;13.80;99.90;;;;;;6217245;28;20754;-74
2023/10/25 11:03:49;;;;;;;2.67;2.42;;;13.80;99.90;;;;;;6202650;28;20050;-74
2023/10/25 11:06:51;;;;;;;2.78;2.20;;;13.80;99.90;;;;;;6217808;28;20053;-74
2023/10/25 11:09:52;;;;;;;3.08;2.65;;;13.90;99.90;;;;;;6205636;28;20514;-74
2023/10/25 11:12:58;;;;;;;3.72;3.42;;;13.90;99.90;;;;;;6240974;28;20124;-75
2023/10/25 11:16:03;;;;;;;3.78;2.90;;;14.00;99.90;;;;;;6247412;28;20088;-74
2023/10/25 11:19:10;;;;;;;3.72;2.50;;;14.10;99.90;;;;;;6246152;28;20054;-75
2023/10/25 11:22:11;;;;;;;3.22;2.85;;;14.30;99.90;;;;;;6265226;28;20044;-75
2023/10/25 11:25:21;;;;;;;5.72;3.00;;;14.40;99.90;;;;;;6245604;28;20072;-75
2023/10/25 11:28:24;;;;;;;3.40;2.40;;;14.40;99.90;;;;;;6253594;28;20052;-75
2023/10/25 11:31:26;;;;;;;4.47;2.65;;;14.40;99.90;;;;;;6253153;28;20516;-75
2023/10/25 11:34:33;;;;;;;3.80;3.20;;;14.50;99.90;;;;;;6269747;28;20053;-73
2023/10/25 11:37:42;;;;;;;3.90;2.95;;;14.60;99.90;;;;;;6263003;28;20514;-73
2023/10/25 11:40:45;;;;;;;3.33;2.65;;;14.70;99.90;;;;;;6254538;28;20570;-74
2023/10/25 11:43:47;;;;;;;3.10;2.40;;;14.80;99.90;;;;;;6246528;28;20049;-74
2023/10/25 11:46:51;;;;;;;2.70;2.30;;;14.90;99.90;;;;;;6246687;28;20064;-73
2023/10/25 11:49:56;;;;;;;2.38;1.98;;;14.90;99.90;;;;;;6246772;28;20067;-73
2023/10/25 11:52:58;;;;;;;3.53;2.88;;;14.80;99.90;;;;;;6246400;28;20060;-74
2023/10/25 11:56:00;;;;;;;2.38;2.17;;;14.80;99.90;;;;;;6246351;28;20049;-73
2023/10/25 11:59:02;;;;;;;3.10;1.83;;;14.80;99.90;;;;;;6246349;28;20042;-74
2023/10/25 12:02:04;;;;;;;2.13;1.77;;;14.80;99.90;;;;;;6247133;28;20049;-74
2023/10/25 12:05:07;;;;;;;2.33;1.40;;;14.70;99.90;;;;;;6245973;28;20045;-75
2023/10/25 12:08:09;;;;;;;2.70;1.77;;;14.70;99.90;;;;;;6245597;28;20033;-74
2023/10/25 12:11:11;;;;;;;2.88;2.22;;;14.60;99.90;;;;;;6246468;28;20509;-74
2023/10/25 12:14:13;;;;;;;3.22;1.88;;;14.60;99.90;;;;;;6238618;28;20059;-75
2023/10/25 12:17:15;;;;;;;7.97;2.60;;;14.50;99.90;;;;;;6245885;28;20060;-73
2023/10/25 12:20:18;;;;;;;15.20;11.98;;;14.40;99.90;;;;;;6240197;28;20564;-73
2023/10/25 12:23:20;;;;;;;35.30;29.40;;;14.30;99.90;;;;;;6245739;28;20123;-73
2023/10/25 12:26:22;;;;;;;5.20;4.22;;;14.10;99.90;;;;;;6251942;28;20356;-74
2023/10/25 12:29:24;;;;;;;4.60;3.55;;;14.00;99.90;;;;;;6242328;28;20090;-73
2023/10/25 12:32:26;;;;;;;5.65;2.58;;;13.90;99.90;;;;;;6243576;28;20049;-74
2023/10/25 12:35:29;;;;;;;6.78;5.38;;;13.80;99.90;;;;;;6244103;28;20170;-72
2023/10/25 12:38:31;;;;;;;8.55;2.35;;;13.70;99.90;;;;;;6248293;28;20128;-73
2023/10/25 12:41:33;;;;;;;4.78;2.17;;;13.60;99.90;;;;;;6243926;28;20060;-74
2023/10/25 12:44:35;;;;;;;25.58;14.27;;;13.50;99.90;;;;;;6247631;28;20052;-73
2023/10/25 12:47:37;;;;;;;6.32;3.67;;;13.30;99.90;;;;;;6249852;28;20037;-73
2023/10/25 12:50:41;;;;;;;2.83;2.08;;;13.20;99.90;;;;;;6243550;28;20119;-72
2023/10/25 12:53:43;;;;;;;5.05;2.40;;;13.20;99.90;;;;;;6239676;28;20136;-73
2023/10/25 12:56:44;;;;;;;4.30;3.72;;;13.30;99.90;;;;;;6243074;28;20450;-72
2023/10/25 12:59:46;;;;;;;7.50;4.95;;;13.40;99.90;;;;;;6240560;28;20042;-73
2023/10/25 13:02:48;;;;;;;7.47;3.60;;;13.40;99.90;;;;;;6243024;28;20465;-75
2023/10/25 13:05:51;;;;;;;7.95;5.00;;;13.50;99.90;;;;;;6243650;28;20549;-73
2023/10/25 13:08:53;;;;;;;7.72;6.65;;;13.50;99.90;;;;;;6243456;28;20064;-73
2023/10/25 13:11:55;;;;;;;8.30;5.47;;;13.60;99.90;;;;;;6242499;28;20073;-73
2023/10/25 13:14:57;;;;;;;2.08;1.88;;;13.60;99.90;;;;;;6243507;28;20053;-73
2023/10/25 13:17:58;;;;;;;2.72;1.77;;;13.60;99.90;;;;;;6242554;28;20427;-75
2023/10/25 13:21:01;;;;;;;18.67;15.20;;;13.70;99.90;;;;;;6242783;28;20068;-75
2023/10/25 13:24:04;;;;;;;4.10;3.70;;;13.70;99.90;;;;;;6243022;28;20042;-75
2023/10/25 13:27:06;;;;;;;3.88;1.85;;;13.80;99.90;;;;;;6242696;28;20136;-75
2023/10/25 13:30:08;;;;;;;5.68;4.90;;;13.90;99.90;;;;;;6243201;28;20046;-75
2023/10/25 13:33:10;;;;;;;15.98;10.07;;;14.00;99.90;;;;;;6242863;28;20371;-75
2023/10/25 13:36:13;;;;;;;3.33;2.50;;;14.00;99.90;;;;;;6242699;28;20045;-75
2023/10/25 13:39:14;;;;;;;2.45;2.08;;;14.00;99.90;;;;;;6195074;28;20050;-75
2023/10/25 13:42:17;;;;;;;2.67;2.13;;;13.90;99.90;;;;;;6195234;28;20057;-75
2023/10/25 13:45:19;;;;;;;3.78;1.48;;;14.00;99.90;;;;;;6210360;28;20054;-75
2023/10/25 13:48:20;;;;;;;4.15;2.35;;;14.00;99.90;;;;;;6219534;28;20049;-75
2023/10/25 13:51:23;;;;;;;1.42;1.27;;;14.10;99.90;;;;;;6227098;28;20038;-74
2023/10/25 13:54:25;;;;;;;2.22;1.20;;;14.10;99.90;;;;;;6230174;28;20524;-73
2023/10/25 13:57:27;;;;;;;4.13;1.73;;;14.10;99.90;;;;;;6220438;28;20523;-76
2023/10/25 14:00:28;;;;;;;4.80;2.28;;;14.20;99.90;;;;;;6227861;28;20050;-76
2023/10/25 14:03:30;;;;;;;1.52;1.35;;;14.20;99.90;;;;;;6219937;28;20601;-76
2023/10/25 14:06:33;;;;;;;3.80;1.50;;;14.20;99.90;;;;;;6219380;28;20061;-74
2023/10/25 14:09:35;;;;;;;2.10;1.25;;;14.30;99.90;;;;;;6219355;28;20053;-74
2023/10/25 14:12:37;;;;;;;5.07;2.20;;;14.30;99.90;;;;;;6218538;28;20049;-75
2023/10/25 14:15:39;;;;;;;1.88;1.27;;;14.30;99.90;;;;;;6220101;28;20052;-74
2023/10/25 14:18:41;;;;;;;1.45;0.90;;;14.30;99.90;;;;;;6219121;28;20069;-75
2023/10/25 14:21:44;;;;;;;1.75;1.48;;;14.40;99.90;;;;;;6212527;28;20057;-75
2023/10/25 14:24:46;;;;;;;1.00;0.65;;;14.40;99.90;;;;;;6219023;28;20042;-75
2023/10/25 14:27:47;;;;;;;0.50;0.47;;;14.40;99.90;;;;;;6218632;28;20056;-75
2023/10/25 14:30:49;;;;;;;1.25;1.02;;;14.30;99.90;;;;;;6219458;28;20073;-75
2023/10/25 14:33:51;;;;;;;0.65;0.65;;;14.20;99.90;;;;;;6223525;28;20064;-75
2023/10/25 14:36:55;;;;;;;0.70;0.65;;;14.10;99.90;;;;;;6221544;28;20042;-75
2023/10/25 14:39:56;;;;;;;0.75;0.70;;;13.90;99.90;;;;;;6223523;28;20395;-77
2023/10/25 14:42:59;;;;;;;0.70;0.57;;;13.70;99.90;;;;;;6221258;28;20046;-75
2023/10/25 14:46:00;;;;;;;2.42;0.45;;;13.60;99.90;;;;;;6224068;28;20427;-77
2023/10/25 14:49:03;;;;;;;2.25;0.77;;;13.60;99.90;;;;;;6223871;28;20048;-75
2023/10/25 14:52:07;;;;;;;0.68;0.68;;;13.50;99.90;;;;;;6223311;28;20156;-75
2023/10/25 14:55:10;;;;;;;0.80;0.68;;;13.50;99.90;;;;;;6223283;28;20042;-75
2023/10/25 14:58:11;;;;;;;1.55;0.70;;;13.50;99.90;;;;;;6223297;28;20422;-79
2023/10/25 15:01:20;;;;;;;1.10;0.75;;;13.50;99.90;;;;;;6224372;28;20112;-75
2023/10/25 15:04:21;;;;;;;;;;;13.50;99.90;;;;;;6234259;28;20056;-77
2023/10/25 15:07:25;;;;;;;1.02;0.80;;;13.50;99.90;;;;;;6224990;28;19928;-75
2023/10/25 15:10:26;;;;;;;5.78;1.40;;;13.50;99.90;;;;;;6223472;28;20042;-75
2023/10/25 15:13:29;;;;;;;1.20;1.05;;;13.50;99.90;;;;;;6223240;28;20503;-76
2023/10/25 15:16:33;;;;;;;1.30;1.23;;;13.50;99.90;;;;;;6222481;28;20054;-76
2023/10/25 15:19:35;;;;;;;1.55;1.25;;;13.50;99.90;;;;;;6222761;28;20369;-76
2023/10/25 15:22:38;;;;;;;1.48;1.38;;;13.50;99.90;;;;;;6223353;28;20060;-75
2023/10/25 15:25:41;;;;;;;7.20;1.45;;;13.50;99.90;;;;;;6223118;28;20057;-76
2023/10/25 15:28:43;;;;;;;0.70;0.65;;;13.60;99.90;;;;;;6220000;28;20050;-75
2023/10/25 15:31:45;;;;;;;0.47;0.47;;;13.60;99.90;;;;;;6217480;28;20058;-75
2023/10/25 15:34:46;;;;;;;0.35;0.35;;;13.50;99.90;;;;;;6223529;28;20050;-76
2023/10/25 15:37:49;;;;;;;0.22;0.22;;;13.50;99.90;;;;;;6222721;28;20057;-75
2023/10/25 15:41:16;;;;;;;0.20;0.20;;;13.50;99.90;;;;;;6221855;28;20048;-75
2023/10/25 15:44:18;;;;;;;0.43;0.43;;;13.40;99.90;;;;;;6221138;28;20128;-75
2023/10/25 15:47:21;;;;;;;0.63;0.38;;;13.30;99.90;;;;;;6222400;28;20086;-75
2023/10/25 15:50:23;;;;;;;0.38;0.38;;;13.20;99.90;;;;;;6221634;28;20049;-76
2023/10/25 15:53:26;;;;;;;0.20;0.20;;;13.10;99.90;;;;;;6221805;28;20084;-76
2023/10/25 15:56:28;;;;;;;0.40;0.40;;;13.10;99.90;;;;;;6219553;28;20046;-75